sensor_id;sensor_type;location;lat;lon;timestamp;temperature;humidity
60846;DHT22;47984;51.250;6.712;2022-07-23T00:00:27;17.80;55.80
60846;DHT22;47984;51.250;6.712;2022-07-23T00:02:59;17.80;55.80
60846;DHT22;47984;51.250;6.712;2022-07-23T00:05:26;17.70;55.80
60846;DHT22;47984;51.250;6.712;2022-07-23T00:07:53;17.70;56.00
60846;DHT22;47984;51.250;6.712;2022-07-23T00:10:20;17.70;56.00
60846;DHT22;47984;51.250;6.712;2022-07-23T00:12:48;17.70;56.10
60846;DHT22;47984;51.250;6.712;2022-07-23T00:15:18;17.60;56.00
60846;DHT22;47984;51.250;6.712;2022-07-23T00:17:45;17.60;56.10
60846;DHT22;47984;51.250;6.712;2022-07-23T00:20:13;17.60;56.30
60846;DHT22;47984;51.250;6.712;2022-07-23T00:22:48;17.60;56.30
60846;DHT22;47984;51.250;6.712;2022-07-23T00:25:21;17.60;56.80
60846;DHT22;47984;51.250;6.712;2022-07-23T00:27:57;17.60;56.40
60846;DHT22;47984;51.250;6.712;2022-07-23T00:30:25;17.50;56.40
60846;DHT22;47984;51.250;6.712;2022-07-23T00:32:55;17.50;57.10
60846;DHT22;47984;51.250;6.712;2022-07-23T00:35:26;17.50;56.60
60846;DHT22;47984;51.250;6.712;2022-07-23T00:37:57;17.50;56.60
60846;DHT22;47984;51.250;6.712;2022-07-23T00:40:25;17.50;56.60
60846;DHT22;47984;51.250;6.712;2022-07-23T00:42:53;17.50;56.80
60846;DHT22;47984;51.250;6.712;2022-07-23T00:45:21;17.40;56.90
60846;DHT22;47984;51.250;6.712;2022-07-23T00:47:48;17.40;56.90
60846;DHT22;47984;51.250;6.712;2022-07-23T00:50:15;17.40;56.90
60846;DHT22;47984;51.250;6.712;2022-07-23T00:52:43;17.40;57.00
60846;DHT22;47984;51.250;6.712;2022-07-23T00:55:11;17.40;57.00
60846;DHT22;47984;51.250;6.712;2022-07-23T00:57:39;17.30;57.10
60846;DHT22;47984;51.250;6.712;2022-07-23T01:00:10;17.30;57.20
60846;DHT22;47984;51.250;6.712;2022-07-23T01:02:39;17.30;57.30
60846;DHT22;47984;51.250;6.712;2022-07-23T01:05:06;17.30;57.30
60846;DHT22;47984;51.250;6.712;2022-07-23T01:07:35;17.30;57.30
60846;DHT22;47984;51.250;6.712;2022-07-23T01:10:04;17.30;57.30
60846;DHT22;47984;51.250;6.712;2022-07-23T01:12:53;17.30;57.50
60846;DHT22;47984;51.250;6.712;2022-07-23T01:15:20;17.20;57.40
60846;DHT22;47984;51.250;6.712;2022-07-23T01:17:48;17.20;57.50
60846;DHT22;47984;51.250;6.712;2022-07-23T01:20:15;17.20;57.60
60846;DHT22;47984;51.250;6.712;2022-07-23T01:22:44;17.20;57.60
60846;DHT22;47984;51.250;6.712;2022-07-23T01:25:11;17.20;57.60
60846;DHT22;47984;51.250;6.712;2022-07-23T01:27:39;17.20;57.60
60846;DHT22;47984;51.250;6.712;2022-07-23T01:30:06;17.20;57.80
60846;DHT22;47984;51.250;6.712;2022-07-23T01:32:34;17.20;57.90
60846;DHT22;47984;51.250;6.712;2022-07-23T01:35:01;17.20;57.90
60846;DHT22;47984;51.250;6.712;2022-07-23T01:37:29;17.20;58.00
60846;DHT22;47984;51.250;6.712;2022-07-23T01:39:56;17.10;57.90
60846;DHT22;47984;51.250;6.712;2022-07-23T01:42:23;17.10;58.00
60846;DHT22;47984;51.250;6.712;2022-07-23T01:44:51;17.10;58.00
60846;DHT22;47984;51.250;6.712;2022-07-23T01:47:19;17.10;58.00
60846;DHT22;47984;51.250;6.712;2022-07-23T01:49:46;17.10;58.00
60846;DHT22;47984;51.250;6.712;2022-07-23T01:52:13;17.10;58.00
60846;DHT22;47984;51.250;6.712;2022-07-23T01:54:40;17.10;58.00
60846;DHT22;47984;51.250;6.712;2022-07-23T01:57:08;17.00;57.80
60846;DHT22;47984;51.250;6.712;2022-07-23T01:59:35;17.00;57.90
60846;DHT22;47984;51.250;6.712;2022-07-23T02:02:03;17.00;57.80
60846;DHT22;47984;51.250;6.712;2022-07-23T02:04:32;16.90;57.70
60846;DHT22;47984;51.250;6.712;2022-07-23T02:07:04;16.90;57.60
60846;DHT22;47984;51.250;6.712;2022-07-23T02:09:31;16.90;57.70
60846;DHT22;47984;51.250;6.712;2022-07-23T02:11:59;16.90;57.50
60846;DHT22;47984;51.250;6.712;2022-07-23T02:14:26;16.90;57.60
60846;DHT22;47984;51.250;6.712;2022-07-23T02:16:53;16.80;57.60
60846;DHT22;47984;51.250;6.712;2022-07-23T02:19:21;16.80;57.60
60846;DHT22;47984;51.250;6.712;2022-07-23T02:21:48;16.70;57.60
60846;DHT22;47984;51.250;6.712;2022-07-23T02:24:16;16.70;57.70
60846;DHT22;47984;51.250;6.712;2022-07-23T02:26:43;16.70;57.80
60846;DHT22;47984;51.250;6.712;2022-07-23T02:29:10;16.60;57.70
60846;DHT22;47984;51.250;6.712;2022-07-23T02:31:38;16.60;57.90
60846;DHT22;47984;51.250;6.712;2022-07-23T02:34:05;16.60;58.00
60846;DHT22;47984;51.250;6.712;2022-07-23T02:36:33;16.60;57.90
60846;DHT22;47984;51.250;6.712;2022-07-23T02:39:00;16.50;57.90
60846;DHT22;47984;51.250;6.712;2022-07-23T02:41:28;16.50;57.90
60846;DHT22;47984;51.250;6.712;2022-07-23T02:43:55;16.50;58.00
60846;DHT22;47984;51.250;6.712;2022-07-23T02:46:22;16.40;57.90
60846;DHT22;47984;51.250;6.712;2022-07-23T02:48:49;16.40;57.70
60846;DHT22;47984;51.250;6.712;2022-07-23T02:51:16;16.40;57.70
60846;DHT22;47984;51.250;6.712;2022-07-23T02:53:43;16.30;57.70
60846;DHT22;47984;51.250;6.712;2022-07-23T02:56:11;16.30;57.80
60846;DHT22;47984;51.250;6.712;2022-07-23T02:58:38;16.30;57.70
60846;DHT22;47984;51.250;6.712;2022-07-23T03:01:05;16.20;57.60
60846;DHT22;47984;51.250;6.712;2022-07-23T03:03:32;16.20;57.70
60846;DHT22;47984;51.250;6.712;2022-07-23T03:05:59;16.20;57.60
60846;DHT22;47984;51.250;6.712;2022-07-23T03:08:26;16.10;57.60
60846;DHT22;47984;51.250;6.712;2022-07-23T03:10:54;16.10;57.60
60846;DHT22;47984;51.250;6.712;2022-07-23T03:13:21;16.10;57.60
60846;DHT22;47984;51.250;6.712;2022-07-23T03:15:48;16.00;57.60
60846;DHT22;47984;51.250;6.712;2022-07-23T03:18:15;16.00;57.60
60846;DHT22;47984;51.250;6.712;2022-07-23T03:20:42;15.90;57.50
60846;DHT22;47984;51.250;6.712;2022-07-23T03:23:10;15.90;57.60
60846;DHT22;47984;51.250;6.712;2022-07-23T03:25:37;15.80;57.60
60846;DHT22;47984;51.250;6.712;2022-07-23T03:28:04;15.80;57.60
60846;DHT22;47984;51.250;6.712;2022-07-23T03:30:31;15.70;57.60
60846;DHT22;47984;51.250;6.712;2022-07-23T03:32:58;15.70;57.60
60846;DHT22;47984;51.250;6.712;2022-07-23T03:35:25;15.70;57.70
60846;DHT22;47984;51.250;6.712;2022-07-23T03:37:53;15.60;57.70
60846;DHT22;47984;51.250;6.712;2022-07-23T03:40:21;15.60;57.70
60846;DHT22;47984;51.250;6.712;2022-07-23T03:42:48;15.60;57.90
60846;DHT22;47984;51.250;6.712;2022-07-23T03:45:15;15.50;57.80
60846;DHT22;47984;51.250;6.712;2022-07-23T03:47:42;15.50;57.70
60846;DHT22;47984;51.250;6.712;2022-07-23T03:50:11;15.50;58.00
60846;DHT22;47984;51.250;6.712;2022-07-23T03:52:38;15.50;58.00
60846;DHT22;47984;51.250;6.712;2022-07-23T03:55:06;15.40;58.00
60846;DHT22;47984;51.250;6.712;2022-07-23T03:57:33;15.40;58.00
60846;DHT22;47984;51.250;6.712;2022-07-23T04:00:00;15.40;58.00
60846;DHT22;47984;51.250;6.712;2022-07-23T04:02:28;15.30;57.90
60846;DHT22;47984;51.250;6.712;2022-07-23T04:04:55;15.30;58.00
60846;DHT22;47984;51.250;6.712;2022-07-23T04:07:22;15.30;58.00
60846;DHT22;47984;51.250;6.712;2022-07-23T04:09:49;15.30;58.10
60846;DHT22;47984;51.250;6.712;2022-07-23T04:12:16;15.20;58.10
60846;DHT22;47984;51.250;6.712;2022-07-23T04:14:43;15.20;58.30
60846;DHT22;47984;51.250;6.712;2022-07-23T04:17:11;15.20;58.40
60846;DHT22;47984;51.250;6.712;2022-07-23T04:19:42;15.10;58.40
60846;DHT22;47984;51.250;6.712;2022-07-23T04:22:11;15.10;58.70
60846;DHT22;47984;51.250;6.712;2022-07-23T04:24:38;15.10;58.60
60846;DHT22;47984;51.250;6.712;2022-07-23T04:27:06;15.10;58.60
60846;DHT22;47984;51.250;6.712;2022-07-23T04:29:33;15.10;58.70
60846;DHT22;47984;51.250;6.712;2022-07-23T04:32:00;15.00;58.70
60846;DHT22;47984;51.250;6.712;2022-07-23T04:34:28;15.00;58.80
60846;DHT22;47984;51.250;6.712;2022-07-23T04:36:55;15.00;58.80
60846;DHT22;47984;51.250;6.712;2022-07-23T04:39:22;15.00;59.00
60846;DHT22;47984;51.250;6.712;2022-07-23T04:41:49;15.00;59.00
60846;DHT22;47984;51.250;6.712;2022-07-23T04:44:17;15.00;59.10
60846;DHT22;47984;51.250;6.712;2022-07-23T04:46:44;15.00;59.30
60846;DHT22;47984;51.250;6.712;2022-07-23T04:49:12;15.00;59.50
60846;DHT22;47984;51.250;6.712;2022-07-23T04:51:40;15.00;59.60
60846;DHT22;47984;51.250;6.712;2022-07-23T04:54:07;15.00;59.60
60846;DHT22;47984;51.250;6.712;2022-07-23T04:56:34;15.00;59.80
60846;DHT22;47984;51.250;6.712;2022-07-23T04:59:01;15.00;60.00
60846;DHT22;47984;51.250;6.712;2022-07-23T05:01:29;15.00;60.10
60846;DHT22;47984;51.250;6.712;2022-07-23T05:03:56;15.00;60.30
60846;DHT22;47984;51.250;6.712;2022-07-23T05:06:23;15.00;60.50
60846;DHT22;47984;51.250;6.712;2022-07-23T05:08:50;15.00;60.60
60846;DHT22;47984;51.250;6.712;2022-07-23T05:11:17;15.10;60.90
60846;DHT22;47984;51.250;6.712;2022-07-23T05:13:50;15.10;61.00
60846;DHT22;47984;51.250;6.712;2022-07-23T05:16:18;15.10;61.00
60846;DHT22;47984;51.250;6.712;2022-07-23T05:18:45;15.10;61.20
60846;DHT22;47984;51.250;6.712;2022-07-23T05:21:12;15.20;61.40
60846;DHT22;47984;51.250;6.712;2022-07-23T05:23:39;15.20;61.40
60846;DHT22;47984;51.250;6.712;2022-07-23T05:26:06;15.20;61.30
60846;DHT22;47984;51.250;6.712;2022-07-23T05:28:33;15.30;61.60
60846;DHT22;47984;51.250;6.712;2022-07-23T05:31:00;15.30;61.70
60846;DHT22;47984;51.250;6.712;2022-07-23T05:33:28;15.40;61.70
60846;DHT22;47984;51.250;6.712;2022-07-23T05:36:02;15.40;61.70
60846;DHT22;47984;51.250;6.712;2022-07-23T05:38:31;15.40;62.00
60846;DHT22;47984;51.250;6.712;2022-07-23T05:40:59;15.50;61.90
60846;DHT22;47984;51.250;6.712;2022-07-23T05:43:28;15.50;61.70
60846;DHT22;47984;51.250;6.712;2022-07-23T05:45:55;15.60;61.70
60846;DHT22;47984;51.250;6.712;2022-07-23T05:48:22;15.60;61.70
60846;DHT22;47984;51.250;6.712;2022-07-23T05:50:50;15.70;61.70
60846;DHT22;47984;51.250;6.712;2022-07-23T05:53:17;15.70;61.80
60846;DHT22;47984;51.250;6.712;2022-07-23T05:55:44;15.80;62.10
60846;DHT22;47984;51.250;6.712;2022-07-23T05:58:11;15.80;62.10
60846;DHT22;47984;51.250;6.712;2022-07-23T06:00:38;15.90;62.00
60846;DHT22;47984;51.250;6.712;2022-07-23T06:03:06;15.90;62.00
60846;DHT22;47984;51.250;6.712;2022-07-23T06:05:33;16.00;62.10
60846;DHT22;47984;51.250;6.712;2022-07-23T06:08:00;16.00;62.20
60846;DHT22;47984;51.250;6.712;2022-07-23T06:10:27;16.10;61.90
60846;DHT22;47984;51.250;6.712;2022-07-23T06:12:54;16.10;61.90
60846;DHT22;47984;51.250;6.712;2022-07-23T06:15:28;16.20;62.00
60846;DHT22;47984;51.250;6.712;2022-07-23T06:17:56;16.20;61.80
60846;DHT22;47984;51.250;6.712;2022-07-23T06:20:23;16.30;62.10
60846;DHT22;47984;51.250;6.712;2022-07-23T06:22:50;16.30;62.00
60846;DHT22;47984;51.250;6.712;2022-07-23T06:25:17;16.40;62.00
60846;DHT22;47984;51.250;6.712;2022-07-23T06:27:46;16.40;62.00
60846;DHT22;47984;51.250;6.712;2022-07-23T06:30:14;16.40;61.90
60846;DHT22;47984;51.250;6.712;2022-07-23T06:32:48;16.50;62.00
60846;DHT22;47984;51.250;6.712;2022-07-23T06:35:16;16.50;62.20
60846;DHT22;47984;51.250;6.712;2022-07-23T06:37:44;16.60;62.30
60846;DHT22;47984;51.250;6.712;2022-07-23T06:40:14;16.60;62.30
60846;DHT22;47984;51.250;6.712;2022-07-23T06:42:41;16.70;62.20
60846;DHT22;47984;51.250;6.712;2022-07-23T06:45:08;16.70;62.30
60846;DHT22;47984;51.250;6.712;2022-07-23T06:47:35;16.80;62.20
60846;DHT22;47984;51.250;6.712;2022-07-23T06:50:03;16.80;62.10
60846;DHT22;47984;51.250;6.712;2022-07-23T06:52:30;16.90;62.20
60846;DHT22;47984;51.250;6.712;2022-07-23T06:54:57;17.00;62.30
60846;DHT22;47984;51.250;6.712;2022-07-23T06:57:24;17.00;62.30
60846;DHT22;47984;51.250;6.712;2022-07-23T06:59:52;17.10;62.50
60846;DHT22;47984;51.250;6.712;2022-07-23T07:02:22;17.20;62.40
60846;DHT22;47984;51.250;6.712;2022-07-23T07:04:49;17.20;62.20
60846;DHT22;47984;51.250;6.712;2022-07-23T07:07:16;17.30;62.00
60846;DHT22;47984;51.250;6.712;2022-07-23T07:09:43;17.30;61.90
60846;DHT22;47984;51.250;6.712;2022-07-23T07:12:14;17.40;61.80
60846;DHT22;47984;51.250;6.712;2022-07-23T07:14:41;17.40;61.50
60846;DHT22;47984;51.250;6.712;2022-07-23T07:17:08;17.50;61.70
60846;DHT22;47984;51.250;6.712;2022-07-23T07:19:37;17.60;61.80
60846;DHT22;47984;51.250;6.712;2022-07-23T07:22:04;17.60;61.80
60846;DHT22;47984;51.250;6.712;2022-07-23T07:24:31;17.60;61.70
60846;DHT22;47984;51.250;6.712;2022-07-23T07:27:04;17.70;61.40
60846;DHT22;47984;51.250;6.712;2022-07-23T07:29:31;17.80;61.50
60846;DHT22;47984;51.250;6.712;2022-07-23T07:31:58;17.80;61.40
60846;DHT22;47984;51.250;6.712;2022-07-23T07:34:25;17.90;61.40
60846;DHT22;47984;51.250;6.712;2022-07-23T07:36:52;18.00;61.20
60846;DHT22;47984;51.250;6.712;2022-07-23T07:39:20;18.10;61.00
60846;DHT22;47984;51.250;6.712;2022-07-23T07:41:47;18.10;60.80
60846;DHT22;47984;51.250;6.712;2022-07-23T07:44:14;18.20;60.50
60846;DHT22;47984;51.250;6.712;2022-07-23T07:46:41;18.20;60.60
60846;DHT22;47984;51.250;6.712;2022-07-23T07:49:08;18.30;60.20
60846;DHT22;47984;51.250;6.712;2022-07-23T07:51:41;18.30;59.80
60846;DHT22;47984;51.250;6.712;2022-07-23T07:54:12;18.40;60.80
60846;DHT22;47984;51.250;6.712;2022-07-23T07:56:39;18.40;59.90
60846;DHT22;47984;51.250;6.712;2022-07-23T07:59:07;18.50;59.60
60846;DHT22;47984;51.250;6.712;2022-07-23T08:01:36;18.50;59.50
60846;DHT22;47984;51.250;6.712;2022-07-23T08:04:04;18.60;59.30
60846;DHT22;47984;51.250;6.712;2022-07-23T08:06:31;18.60;59.30
60846;DHT22;47984;51.250;6.712;2022-07-23T08:08:59;18.70;59.20
60846;DHT22;47984;51.250;6.712;2022-07-23T08:11:26;18.70;59.00
60846;DHT22;47984;51.250;6.712;2022-07-23T08:13:53;18.80;59.20
60846;DHT22;47984;51.250;6.712;2022-07-23T08:16:20;18.80;58.90
60846;DHT22;47984;51.250;6.712;2022-07-23T08:18:47;18.90;58.90
60846;DHT22;47984;51.250;6.712;2022-07-23T08:21:15;18.90;58.90
60846;DHT22;47984;51.250;6.712;2022-07-23T08:23:42;19.00;58.90
60846;DHT22;47984;51.250;6.712;2022-07-23T08:26:09;19.10;58.40
60846;DHT22;47984;51.250;6.712;2022-07-23T08:28:37;19.10;58.30
60846;DHT22;47984;51.250;6.712;2022-07-23T08:31:05;19.20;58.30
60846;DHT22;47984;51.250;6.712;2022-07-23T08:33:32;19.20;57.70
60846;DHT22;47984;51.250;6.712;2022-07-23T08:36:02;19.30;57.80
60846;DHT22;47984;51.250;6.712;2022-07-23T08:38:32;19.40;57.80
60846;DHT22;47984;51.250;6.712;2022-07-23T08:41:00;19.40;57.40
60846;DHT22;47984;51.250;6.712;2022-07-23T08:43:29;19.50;57.20
60846;DHT22;47984;51.250;6.712;2022-07-23T08:46:00;19.50;57.20
60846;DHT22;47984;51.250;6.712;2022-07-23T08:48:35;19.60;56.90
60846;DHT22;47984;51.250;6.712;2022-07-23T08:51:06;19.70;56.50
60846;DHT22;47984;51.250;6.712;2022-07-23T08:53:34;19.70;57.20
60846;DHT22;47984;51.250;6.712;2022-07-23T08:56:06;19.70;57.10
60846;DHT22;47984;51.250;6.712;2022-07-23T08:58:35;19.80;56.70
60846;DHT22;47984;51.250;6.712;2022-07-23T09:01:03;19.80;56.50
60846;DHT22;47984;51.250;6.712;2022-07-23T09:03:32;19.90;56.60
60846;DHT22;47984;51.250;6.712;2022-07-23T09:06:02;20.00;56.00
60846;DHT22;47984;51.250;6.712;2022-07-23T09:08:41;20.00;55.60
60846;DHT22;47984;51.250;6.712;2022-07-23T09:11:12;20.00;55.30
60846;DHT22;47984;51.250;6.712;2022-07-23T09:13:47;20.10;55.10
60846;DHT22;47984;51.250;6.712;2022-07-23T09:16:30;20.10;55.20
60846;DHT22;47984;51.250;6.712;2022-07-23T09:19:01;20.20;55.30
60846;DHT22;47984;51.250;6.712;2022-07-23T09:21:36;20.20;55.40
60846;DHT22;47984;51.250;6.712;2022-07-23T09:24:12;20.30;54.40
60846;DHT22;47984;51.250;6.712;2022-07-23T09:26:43;20.30;54.50
60846;DHT22;47984;51.250;6.712;2022-07-23T09:29:22;20.40;54.80
60846;DHT22;47984;51.250;6.712;2022-07-23T09:32:01;20.40;54.70
60846;DHT22;47984;51.250;6.712;2022-07-23T09:34:33;20.50;55.00
60846;DHT22;47984;51.250;6.712;2022-07-23T09:37:15;20.50;54.70
60846;DHT22;47984;51.250;6.712;2022-07-23T09:39:46;20.60;53.80
60846;DHT22;47984;51.250;6.712;2022-07-23T09:42:25;20.70;54.20
60846;DHT22;47984;51.250;6.712;2022-07-23T09:44:57;20.70;53.50
60846;DHT22;47984;51.250;6.712;2022-07-23T09:47:26;20.80;53.50
60846;DHT22;47984;51.250;6.712;2022-07-23T09:50:09;20.80;54.80
60846;DHT22;47984;51.250;6.712;2022-07-23T09:52:44;20.90;53.40
60846;DHT22;47984;51.250;6.712;2022-07-23T09:55:18;20.90;53.20
60846;DHT22;47984;51.250;6.712;2022-07-23T09:57:46;21.00;53.00
60846;DHT22;47984;51.250;6.712;2022-07-23T10:00:17;21.00;53.00
60846;DHT22;47984;51.250;6.712;2022-07-23T10:02:47;21.00;52.90
60846;DHT22;47984;51.250;6.712;2022-07-23T10:05:16;21.00;52.60
60846;DHT22;47984;51.250;6.712;2022-07-23T10:07:44;21.10;53.20
60846;DHT22;47984;51.250;6.712;2022-07-23T10:10:18;21.10;52.80
60846;DHT22;47984;51.250;6.712;2022-07-23T10:12:49;21.10;52.50
60846;DHT22;47984;51.250;6.712;2022-07-23T10:15:35;21.20;52.40
60846;DHT22;47984;51.250;6.712;2022-07-23T10:18:03;21.20;51.90
60846;DHT22;47984;51.250;6.712;2022-07-23T10:20:31;21.30;51.90
60846;DHT22;47984;51.250;6.712;2022-07-23T10:23:33;21.30;51.80
60846;DHT22;47984;51.250;6.712;2022-07-23T10:26:22;21.30;51.10
60846;DHT22;47984;51.250;6.712;2022-07-23T10:29:13;21.40;51.50
60846;DHT22;47984;51.250;6.712;2022-07-23T10:38:16;21.50;51.60
60846;DHT22;47984;51.250;6.712;2022-07-23T10:40:57;21.50;51.00
60846;DHT22;47984;51.250;6.712;2022-07-23T10:43:27;21.60;51.00
60846;DHT22;47984;51.250;6.712;2022-07-23T10:46:31;21.60;51.30
60846;DHT22;47984;51.250;6.712;2022-07-23T10:49:28;21.70;51.00
60846;DHT22;47984;51.250;6.712;2022-07-23T10:52:17;21.80;50.30
60846;DHT22;47984;51.250;6.712;2022-07-23T10:57:51;21.90;51.00
60846;DHT22;47984;51.250;6.712;2022-07-23T11:00:26;21.90;50.80
60846;DHT22;47984;51.250;6.712;2022-07-23T11:02:58;21.90;50.00
60846;DHT22;47984;51.250;6.712;2022-07-23T11:05:40;22.00;49.60
60846;DHT22;47984;51.250;6.712;2022-07-23T11:08:17;22.00;50.10
60846;DHT22;47984;51.250;6.712;2022-07-23T11:10:55;22.00;50.30
60846;DHT22;47984;51.250;6.712;2022-07-23T11:13:38;22.10;49.60
60846;DHT22;47984;51.250;6.712;2022-07-23T11:16:15;22.10;49.80
60846;DHT22;47984;51.250;6.712;2022-07-23T11:24:09;22.20;49.80
60846;DHT22;47984;51.250;6.712;2022-07-23T11:26:45;22.20;49.50
60846;DHT22;47984;51.250;6.712;2022-07-23T11:32:02;22.30;49.50
60846;DHT22;47984;51.250;6.712;2022-07-23T11:34:39;22.40;48.80
60846;DHT22;47984;51.250;6.712;2022-07-23T11:37:09;22.40;48.50
60846;DHT22;47984;51.250;6.712;2022-07-23T11:39:38;22.40;49.40
60846;DHT22;47984;51.250;6.712;2022-07-23T11:42:07;22.50;48.70
60846;DHT22;47984;51.250;6.712;2022-07-23T11:44:36;22.50;48.90
60846;DHT22;47984;51.250;6.712;2022-07-23T11:47:08;22.60;48.60
60846;DHT22;47984;51.250;6.712;2022-07-23T11:49:37;22.60;48.10
60846;DHT22;47984;51.250;6.712;2022-07-23T11:52:14;22.60;48.90
60846;DHT22;47984;51.250;6.712;2022-07-23T11:54:59;22.60;47.50
60846;DHT22;47984;51.250;6.712;2022-07-23T11:57:31;22.70;47.60
60846;DHT22;47984;51.250;6.712;2022-07-23T12:00:09;22.70;47.80
60846;DHT22;47984;51.250;6.712;2022-07-23T12:02:49;22.70;47.20
60846;DHT22;47984;51.250;6.712;2022-07-23T12:05:20;22.80;47.30
60846;DHT22;47984;51.250;6.712;2022-07-23T12:07:52;22.80;47.50
60846;DHT22;47984;51.250;6.712;2022-07-23T12:10:22;22.90;47.50
60846;DHT22;47984;51.250;6.712;2022-07-23T12:12:52;22.90;47.40
60846;DHT22;47984;51.250;6.712;2022-07-23T12:15:41;22.90;47.10
60846;DHT22;47984;51.250;6.712;2022-07-23T12:18:13;23.00;46.20
60846;DHT22;47984;51.250;6.712;2022-07-23T12:20:44;23.00;47.20
60846;DHT22;47984;51.250;6.712;2022-07-23T12:23:15;23.00;46.70
60846;DHT22;47984;51.250;6.712;2022-07-23T12:25:47;23.00;47.10
60846;DHT22;47984;51.250;6.712;2022-07-23T12:30:52;23.10;46.90
60846;DHT22;47984;51.250;6.712;2022-07-23T12:35:56;23.10;46.60
60846;DHT22;47984;51.250;6.712;2022-07-23T12:38:27;23.10;46.00
60846;DHT22;47984;51.250;6.712;2022-07-23T12:40:59;23.20;46.00
60846;DHT22;47984;51.250;6.712;2022-07-23T12:43:32;23.10;45.40
60846;DHT22;47984;51.250;6.712;2022-07-23T12:48:35;23.20;45.60
60846;DHT22;47984;51.250;6.712;2022-07-23T12:51:09;23.20;45.00
60846;DHT22;47984;51.250;6.712;2022-07-23T12:53:46;23.20;45.40
60846;DHT22;47984;51.250;6.712;2022-07-23T12:56:26;23.20;45.70
60846;DHT22;47984;51.250;6.712;2022-07-23T13:01:36;23.20;44.70
60846;DHT22;47984;51.250;6.712;2022-07-23T13:04:24;23.20;45.00
60846;DHT22;47984;51.250;6.712;2022-07-23T13:06:55;23.20;44.80
60846;DHT22;47984;51.250;6.712;2022-07-23T13:09:32;23.30;44.80
60846;DHT22;47984;51.250;6.712;2022-07-23T13:12:08;23.20;45.00
60846;DHT22;47984;51.250;6.712;2022-07-23T13:14:37;23.20;45.00
60846;DHT22;47984;51.250;6.712;2022-07-23T13:17:05;23.30;45.00
60846;DHT22;47984;51.250;6.712;2022-07-23T13:19:33;23.20;45.10
60846;DHT22;47984;51.250;6.712;2022-07-23T13:22:01;23.30;45.20
60846;DHT22;47984;51.250;6.712;2022-07-23T13:24:35;23.20;44.50
60846;DHT22;47984;51.250;6.712;2022-07-23T13:27:05;23.30;44.40
60846;DHT22;47984;51.250;6.712;2022-07-23T13:29:41;23.20;44.40
60846;DHT22;47984;51.250;6.712;2022-07-23T13:32:12;23.20;44.20
60846;DHT22;47984;51.250;6.712;2022-07-23T13:34:40;23.20;44.20
60846;DHT22;47984;51.250;6.712;2022-07-23T13:37:08;23.20;44.20
60846;DHT22;47984;51.250;6.712;2022-07-23T13:39:35;23.30;44.20
60846;DHT22;47984;51.250;6.712;2022-07-23T13:42:05;23.20;44.10
60846;DHT22;47984;51.250;6.712;2022-07-23T13:44:34;23.20;44.20
60846;DHT22;47984;51.250;6.712;2022-07-23T13:47:21;23.20;44.50
60846;DHT22;47984;51.250;6.712;2022-07-23T13:49:50;23.20;44.30
60846;DHT22;47984;51.250;6.712;2022-07-23T13:52:17;23.20;44.30
60846;DHT22;47984;51.250;6.712;2022-07-23T13:54:45;23.20;44.40
60846;DHT22;47984;51.250;6.712;2022-07-23T13:57:12;23.20;44.50
60846;DHT22;47984;51.250;6.712;2022-07-23T13:59:39;23.20;44.80
60846;DHT22;47984;51.250;6.712;2022-07-23T14:02:07;23.20;44.60
60846;DHT22;47984;51.250;6.712;2022-07-23T14:04:47;23.20;44.60
60846;DHT22;47984;51.250;6.712;2022-07-23T14:07:15;23.20;44.60
60846;DHT22;47984;51.250;6.712;2022-07-23T14:09:43;23.20;44.10
60846;DHT22;47984;51.250;6.712;2022-07-23T14:12:10;23.30;43.90
60846;DHT22;47984;51.250;6.712;2022-07-23T14:14:38;23.30;43.90
60846;DHT22;47984;51.250;6.712;2022-07-23T14:17:06;23.30;44.20
60846;DHT22;47984;51.250;6.712;2022-07-23T14:19:37;23.30;43.90
60846;DHT22;47984;51.250;6.712;2022-07-23T14:22:09;23.30;43.90
60846;DHT22;47984;51.250;6.712;2022-07-23T14:24:36;23.30;44.20
60846;DHT22;47984;51.250;6.712;2022-07-23T14:27:04;23.30;43.60
60846;DHT22;47984;51.250;6.712;2022-07-23T14:29:32;23.30;44.00
60846;DHT22;47984;51.250;6.712;2022-07-23T14:32:01;23.30;43.50
60846;DHT22;47984;51.250;6.712;2022-07-23T14:34:29;23.30;43.40
60846;DHT22;47984;51.250;6.712;2022-07-23T14:36:57;23.30;43.30
60846;DHT22;47984;51.250;6.712;2022-07-23T14:39:26;23.30;43.40
60846;DHT22;47984;51.250;6.712;2022-07-23T14:41:54;23.30;43.30
60846;DHT22;47984;51.250;6.712;2022-07-23T14:44:21;23.30;43.20
60846;DHT22;47984;51.250;6.712;2022-07-23T14:46:48;23.40;43.00
60846;DHT22;47984;51.250;6.712;2022-07-23T14:49:16;23.40;43.30
60846;DHT22;47984;51.250;6.712;2022-07-23T14:51:44;23.40;43.20
60846;DHT22;47984;51.250;6.712;2022-07-23T14:54:11;23.40;43.00
60846;DHT22;47984;51.250;6.712;2022-07-23T14:56:41;23.40;43.00
60846;DHT22;47984;51.250;6.712;2022-07-23T14:59:13;23.40;42.90
60846;DHT22;47984;51.250;6.712;2022-07-23T15:01:40;23.40;43.00
60846;DHT22;47984;51.250;6.712;2022-07-23T15:04:08;23.40;43.00
60846;DHT22;47984;51.250;6.712;2022-07-23T15:06:55;23.50;42.80
60846;DHT22;47984;51.250;6.712;2022-07-23T15:09:22;23.50;42.80
60846;DHT22;47984;51.250;6.712;2022-07-23T15:11:49;23.50;43.10
60846;DHT22;47984;51.250;6.712;2022-07-23T15:14:16;23.60;43.10
60846;DHT22;47984;51.250;6.712;2022-07-23T15:16:55;23.50;42.90
60846;DHT22;47984;51.250;6.712;2022-07-23T15:19:22;23.60;42.90
60846;DHT22;47984;51.250;6.712;2022-07-23T15:21:49;23.60;43.00
60846;DHT22;47984;51.250;6.712;2022-07-23T15:24:17;23.60;42.70
60846;DHT22;47984;51.250;6.712;2022-07-23T15:26:44;23.60;42.50
60846;DHT22;47984;51.250;6.712;2022-07-23T15:29:12;23.70;42.80
60846;DHT22;47984;51.250;6.712;2022-07-23T15:31:39;23.70;42.30
60846;DHT22;47984;51.250;6.712;2022-07-23T15:34:06;23.70;42.30
60846;DHT22;47984;51.250;6.712;2022-07-23T15:36:34;23.70;42.40
60846;DHT22;47984;51.250;6.712;2022-07-23T15:39:02;23.80;42.50
60846;DHT22;47984;51.250;6.712;2022-07-23T15:41:30;23.80;42.20
60846;DHT22;47984;51.250;6.712;2022-07-23T15:43:59;23.80;42.00
60846;DHT22;47984;51.250;6.712;2022-07-23T15:46:46;23.80;41.70
60846;DHT22;47984;51.250;6.712;2022-07-23T15:49:14;23.90;42.00
60846;DHT22;47984;51.250;6.712;2022-07-23T15:51:45;23.90;42.50
60846;DHT22;47984;51.250;6.712;2022-07-23T15:54:14;23.90;42.30
60846;DHT22;47984;51.250;6.712;2022-07-23T15:56:41;24.00;42.20
60846;DHT22;47984;51.250;6.712;2022-07-23T15:59:09;23.90;42.10
60846;DHT22;47984;51.250;6.712;2022-07-23T16:01:37;24.00;42.50
60846;DHT22;47984;51.250;6.712;2022-07-23T16:04:04;24.00;41.90
60846;DHT22;47984;51.250;6.712;2022-07-23T16:06:32;24.10;41.60
60846;DHT22;47984;51.250;6.712;2022-07-23T16:09:00;24.10;41.40
60846;DHT22;47984;51.250;6.712;2022-07-23T16:11:31;24.10;41.60
60846;DHT22;47984;51.250;6.712;2022-07-23T16:13:58;24.10;41.50